Fair Grove, MO (65648)

6:20 PM CDT on September 02, 2015 (GMT -0500)
Fair Grove | | Change Station
CLOSE
Current Station
Personal Weather Station
Location: Fair Grove, MO
Elevation: 1276 ft
Nearby Weather Stations

Elev 1276 ft 37.39 °N, 93.15 °W | Updated 12 minutes ago

Clear
Clear
86.2 °F
Feels Like 91 °F
N
5.0
Wind Variable Wind from SE
Gusts 10.0 mph

Today
High -- | Low -- °F
--% Chance of Precip.
Yesterday
High -- | Low -- °F
Precip. -- in
6:43 AM 7:40 PM
Waning Gibbous, 76% visible
Pressure 29.95 in
Visibility 10.0 miles
Clouds Clear
Heat Index 91 °F
Dew Point 70 °F
Humidity 58%
Rainfall 0.00 in
Snow Depth Not available.
UV 0.6 out of 12
Pollen 10.90 out of 12
Air Quality Not available.
Flu Activity Not available.
METAR KSGF 022252Z 19008KT 10SM CLR 31/19 A2999 RMK AO2 SLP141 T03060194
Pressure 29.95 in
Visibility 10.0 miles
Clouds Clear
Heat Index 91 °F
Dew Point 70 °F
Humidity 58%
Rainfall 0.00 in
Snow Depth Not available.
UV 0.6 out of 12
Pollen 10.90 out of 12
Air Quality Not available.
Flu Activity Not available.
METAR KSGF 022252Z 19008KT 10SM CLR 31/19 A2999 RMK AO2 SLP141 T03060194

10-Day Weather Forecast

×

Almanac

Astronomy

Sep. 02, 2015 Rise Set
Actual Time
Civil Twilight
Nautical Twilight
Astronomical Twilight
Moon
Length of Visible Light
Length of Day
Tomorrow will be .
, % of the Moon is Illuminated

Today's Extremes

State Highs State Lows

Community

WunderPhotos

Upload Photos

1,851,826 photos uploaded!

WunderBlogs® & News

Nearby

Air Quality

  Air Quality AQ Index Pollutant
Not available.

Snow Depth

Station Depth Elevation

Earthquake Activity

City Distance Mag. Time & Date
Minimum magnitude displayed is 2.5.

Coastal Water Temperatures

Place Temperature

Stations

Nearby Weather Stations

Station Location Temp. Windchill Dew Point Humidity Wind Precip. Elev Updated Type